ADDS METAR Data INFO
IDs: Format: Raw Decoded Include TAF

Data at: 1408 UTC 24 Feb 2018

KLOL 241353Z AUTO 00000KT 10SM CLR M12/M14 A3022 RMK AO2 SLP278 T11221144
KLOL 241253Z AUTO 00000KT 10SM CLR M16/M18 A3024 RMK AO2 SLP288 T11561178
KLOL 241153Z AUTO 33003KT 10SM BKN065 M13/M14 A3026 RMK AO2 SLP286 T11281144 11100 21144 58014
KLOL 241053Z AUTO 05003KT 10SM BKN060 M13/M16 A3027 RMK AO2 SLP292 T11331156
KLOL 240953Z AUTO 08008KT 10SM FEW065 M14/M17 A3030 RMK AO2 SLP302 T11441167
KLOL 240853Z AUTO 31005KT 10SM CLR M13/M15 A3030 RMK AO2 SLP302 T11281150 56005
KLOL 240753Z AUTO 04003KT 10SM CLR M12/M14 A3031 RMK AO2 SLP305 T11221144 400061128
KLOL 240653Z AUTO 08006KT 10SM CLR M12/M15 A3031 RMK AO2 SLP309 T11221150
KLOL 240553Z AUTO 00000KT 10SM CLR M09/M13 A3032 RMK AO2 SLP308 T10941133 10006 21111 51005
KLOL 240453Z AUTO 00000KT 10SM CLR M10/M14 A3032 RMK AO2 SLP309 T11001139
KLOL 240353Z AUTO 20003KT 10SM CLR M09/M13 A3031 RMK AO2 SLP307 T10891133
KLOL 240253Z AUTO 30004KT 10SM CLR M05/M13 A3031 RMK AO2 SLP300 T10501128 51010
KLOL 240153Z AUTO 29005KT 10SM CLR M04/M14 A3030 RMK AO2 SLP294 T10391139
KLOL 240053Z AUTO 25003KT 10SM FEW050 M01/M14 A3029 RMK AO2 SLP287 T10111139
KLOL 232353Z AUTO 08004KT 10SM OVC055 00/M13 A3027 RMK AO2 SLP281 T00001128 10006 21028 53002
KLOL 232253Z AUTO VRB05KT 10SM BKN055 01/M11 A3027 RMK AO2 SLP280 T00061106
KLOL 232153Z AUTO 03009G15KT 360V070 10SM BKN041 BKN055 00/M09 A3027 RMK AO2 SLP284 T00001094
KLOL 232053Z AUTO 04008KT 10SM FEW036 00/M09 A3027 RMK AO2 SLP283 T00001089 51006
KLOL 231953Z AUTO 02011KT 10SM CLR M01/M09 A3026 RMK AO2 SLP288 T10111089
KLOL 231853Z AUTO 01010KT 10SM FEW031 M03/M09 A3027 RMK AO2 WSHFT 1758 SLP285 T10281094
KLOL 231818Z AUTO 04015KT 10SM FEW029 M02/M09 A3025 RMK AO2 WSHFT 1758 T10221089
KLOL 231753Z AUTO 35011G17KT 10SM CLR M03/M09 A3025 RMK AO2 SLP280 60000 T10281089 11022 21067 51029
KLOL 231653Z AUTO 01012KT 10SM CLR M03/M09 A3022 RMK AO2 SLP271 T10331094
KLOL 231553Z AUTO 01006KT 10SM SCT070 M04/M10 A3019 RMK AO2 SLP261 T10441100
KLOL 231453Z AUTO 36011KT 10SM OVC070 M06/M11 A3015 RMK AO2 SNB1355E05 SLP245 P0000 60000 T10611106 53019
KLOL 231353Z AUTO 01010KT 9SM BKN046 OVC070 M05/M08 A3013 RMK AO2 SNB17E26 SLP234 P0000 T10501083
KLOL 231253Z AUTO 00000KT 9SM SCT028 OVC036 M06/M08 A3011 RMK AO2 SLP227 T10611083
KLOL 231153Z AUTO 00000KT 10SM OVC033 M07/M08 A3009 RMK AO2 SLP219 70003 I6000 T10671083 11061 21111 53012
KLOL 231053Z AUTO 12003KT 10SM FEW040 OVC055 M07/M10 A3006 RMK AO2 SLP213 T10721100
KLOL 230953Z AUTO 32006KT 10SM SCT055 M09/M12 A3005 RMK AO2 SLP209 T10891117
KLOL 230853Z AUTO 00000KT 10SM OVC043 M09/M10 A3005 RMK AO2 SLP207 I1000 I3000 T10891100 52011
KLOL 230753Z AUTO 14004KT 9SM SCT040 BKN050 M11/M12 A3004 RMK AO2 SLP207 T11111122 400061111
KLOL 230653Z AUTO 31008KT 10SM SCT032 OVC060 M08/M10 A3002 RMK AO2 SLP196 T10781100
KLOL 230553Z AUTO 27007KT 10SM OVC055 M08/M09 A3001 RMK AO2 SLP196 60000 I1000 I6000 T10831094 11017 21106 51015
KLOL 230453Z AUTO 12005KT 10SM CLR M09/M10 A2999 RMK AO2 SLP192 I1000 T10891100
KLOL 230353Z AUTO 00000KT 10SM FEW120 M07/M08 A2998 RMK AO2 SLP182 T10721083
KLOL 230253Z AUTO 01007KT 10SM CLR M04/M07 A2996 RMK AO2 SLP172 60000 T10441067 51010